sensor_id;sensor_type;location;lat;lon;timestamp;P1;durP1;ratioP1;P2;durP2;ratioP2
56075;SDS011;41951;49.022;12.066;2022-12-07T00:00:27;8.35;;;5.05;;
56075;SDS011;41951;49.022;12.066;2022-12-07T00:02:53;9.95;;;5.55;;
56075;SDS011;41951;49.022;12.066;2022-12-07T00:05:18;8.68;;;5.32;;
56075;SDS011;41951;49.022;12.066;2022-12-07T00:07:44;8.27;;;5.80;;
56075;SDS011;41951;49.022;12.066;2022-12-07T00:10:09;8.02;;;5.30;;
56075;SDS011;41951;49.022;12.066;2022-12-07T00:12:35;7.72;;;4.85;;
56075;SDS011;41951;49.022;12.066;2022-12-07T00:15:00;9.00;;;5.18;;
56075;SDS011;41951;49.022;12.066;2022-12-07T00:17:26;7.38;;;4.80;;
56075;SDS011;41951;49.022;12.066;2022-12-07T00:19:52;8.27;;;5.22;;
56075;SDS011;41951;49.022;12.066;2022-12-07T00:22:17;9.10;;;4.90;;
56075;SDS011;41951;49.022;12.066;2022-12-07T00:24:43;8.52;;;4.82;;
56075;SDS011;41951;49.022;12.066;2022-12-07T00:27:08;8.15;;;5.13;;
56075;SDS011;41951;49.022;12.066;2022-12-07T00:29:34;7.78;;;5.18;;
56075;SDS011;41951;49.022;12.066;2022-12-07T00:31:59;8.68;;;5.20;;
56075;SDS011;41951;49.022;12.066;2022-12-07T00:34:25;8.30;;;4.85;;
56075;SDS011;41951;49.022;12.066;2022-12-07T00:36:50;7.22;;;4.88;;
56075;SDS011;41951;49.022;12.066;2022-12-07T00:39:16;7.65;;;4.40;;
56075;SDS011;41951;49.022;12.066;2022-12-07T00:41:42;8.60;;;4.63;;
56075;SDS011;41951;49.022;12.066;2022-12-07T00:44:07;7.65;;;4.80;;
56075;SDS011;41951;49.022;12.066;2022-12-07T00:46:33;8.27;;;5.18;;
56075;SDS011;41951;49.022;12.066;2022-12-07T00:48:58;8.32;;;4.88;;
56075;SDS011;41951;49.022;12.066;2022-12-07T00:51:24;7.07;;;4.95;;
56075;SDS011;41951;49.022;12.066;2022-12-07T00:53:50;7.53;;;4.97;;
56075;SDS011;41951;49.022;12.066;2022-12-07T00:56:18;8.50;;;5.45;;
56075;SDS011;41951;49.022;12.066;2022-12-07T00:58:55;8.07;;;5.25;;
56075;SDS011;41951;49.022;12.066;2022-12-07T01:01:23;8.30;;;5.13;;
56075;SDS011;41951;49.022;12.066;2022-12-07T01:03:50;7.50;;;4.93;;
56075;SDS011;41951;49.022;12.066;2022-12-07T01:06:16;8.05;;;4.95;;
56075;SDS011;41951;49.022;12.066;2022-12-07T01:08:43;8.30;;;5.38;;
56075;SDS011;41951;49.022;12.066;2022-12-07T01:11:09;8.68;;;5.60;;
56075;SDS011;41951;49.022;12.066;2022-12-07T01:13:41;8.25;;;5.10;;
56075;SDS011;41951;49.022;12.066;2022-12-07T01:16:08;9.68;;;6.07;;
56075;SDS011;41951;49.022;12.066;2022-12-07T01:18:36;9.27;;;5.80;;
56075;SDS011;41951;49.022;12.066;2022-12-07T01:21:12;10.95;;;6.55;;
56075;SDS011;41951;49.022;12.066;2022-12-07T01:23:38;9.30;;;5.85;;
56075;SDS011;41951;49.022;12.066;2022-12-07T01:26:10;9.75;;;6.18;;
56075;SDS011;41951;49.022;12.066;2022-12-07T01:28:37;9.10;;;5.75;;
56075;SDS011;41951;49.022;12.066;2022-12-07T01:31:04;8.10;;;5.57;;
56075;SDS011;41951;49.022;12.066;2022-12-07T01:33:33;9.23;;;5.55;;
56075;SDS011;41951;49.022;12.066;2022-12-07T01:36:01;7.95;;;5.20;;
56075;SDS011;41951;49.022;12.066;2022-12-07T01:38:32;9.07;;;5.88;;
56075;SDS011;41951;49.022;12.066;2022-12-07T01:40:58;9.43;;;5.20;;
56075;SDS011;41951;49.022;12.066;2022-12-07T01:43:26;7.10;;;4.75;;
56075;SDS011;41951;49.022;12.066;2022-12-07T01:45:53;9.07;;;4.90;;
56075;SDS011;41951;49.022;12.066;2022-12-07T01:48:24;8.65;;;5.63;;
56075;SDS011;41951;49.022;12.066;2022-12-07T01:50:55;9.02;;;5.93;;
56075;SDS011;41951;49.022;12.066;2022-12-07T01:53:24;7.57;;;5.15;;
56075;SDS011;41951;49.022;12.066;2022-12-07T01:55:54;7.90;;;5.38;;
56075;SDS011;41951;49.022;12.066;2022-12-07T01:58:21;8.18;;;5.43;;
56075;SDS011;41951;49.022;12.066;2022-12-07T02:00:47;7.88;;;5.60;;
56075;SDS011;41951;49.022;12.066;2022-12-07T02:03:14;8.95;;;5.72;;
56075;SDS011;41951;49.022;12.066;2022-12-07T02:05:44;8.45;;;5.43;;
56075;SDS011;41951;49.022;12.066;2022-12-07T02:08:11;8.05;;;5.10;;
56075;SDS011;41951;49.022;12.066;2022-12-07T02:10:38;8.50;;;5.40;;
56075;SDS011;41951;49.022;12.066;2022-12-07T02:13:14;9.55;;;5.82;;
56075;SDS011;41951;49.022;12.066;2022-12-07T02:35:25;9.05;;;6.10;;
56075;SDS011;41951;49.022;12.066;2022-12-07T02:37:58;11.05;;;6.68;;
56075;SDS011;41951;49.022;12.066;2022-12-07T02:40:34;10.65;;;6.65;;
56075;SDS011;41951;49.022;12.066;2022-12-07T02:43:09;10.73;;;7.13;;
56075;SDS011;41951;49.022;12.066;2022-12-07T02:45:44;10.32;;;6.72;;
56075;SDS011;41951;49.022;12.066;2022-12-07T02:48:13;10.43;;;6.65;;
56075;SDS011;41951;49.022;12.066;2022-12-07T02:50:44;8.45;;;5.53;;
56075;SDS011;41951;49.022;12.066;2022-12-07T02:53:32;7.03;;;4.97;;
56075;SDS011;41951;49.022;12.066;2022-12-07T02:56:03;8.82;;;5.10;;
56075;SDS011;41951;49.022;12.066;2022-12-07T02:58:48;7.30;;;4.82;;
56075;SDS011;41951;49.022;12.066;2022-12-07T03:01:37;8.65;;;5.00;;
56075;SDS011;41951;49.022;12.066;2022-12-07T03:06:56;9.50;;;5.72;;
56075;SDS011;41951;49.022;12.066;2022-12-07T03:09:43;10.38;;;6.15;;
56075;SDS011;41951;49.022;12.066;2022-12-07T03:12:18;9.52;;;6.32;;
56075;SDS011;41951;49.022;12.066;2022-12-07T03:14:52;10.65;;;6.57;;
56075;SDS011;41951;49.022;12.066;2022-12-07T03:17:26;11.10;;;6.95;;
56075;SDS011;41951;49.022;12.066;2022-12-07T03:19:56;10.07;;;6.60;;
56075;SDS011;41951;49.022;12.066;2022-12-07T03:22:25;11.05;;;6.68;;
56075;SDS011;41951;49.022;12.066;2022-12-07T03:24:56;12.63;;;7.13;;
56075;SDS011;41951;49.022;12.066;2022-12-07T03:27:25;12.20;;;7.20;;
56075;SDS011;41951;49.022;12.066;2022-12-07T03:30:03;11.82;;;7.35;;
56075;SDS011;41951;49.022;12.066;2022-12-07T03:32:36;10.35;;;6.57;;
56075;SDS011;41951;49.022;12.066;2022-12-07T03:37:57;9.73;;;6.55;;
56075;SDS011;41951;49.022;12.066;2022-12-07T03:43:17;13.75;;;8.02;;
56075;SDS011;41951;49.022;12.066;2022-12-07T03:45:44;17.50;;;9.98;;
56075;SDS011;41951;49.022;12.066;2022-12-07T03:48:35;11.27;;;6.90;;
56075;SDS011;41951;49.022;12.066;2022-12-07T03:51:09;13.40;;;8.13;;
56075;SDS011;41951;49.022;12.066;2022-12-07T03:53:52;11.48;;;7.50;;
56075;SDS011;41951;49.022;12.066;2022-12-07T03:56:23;12.77;;;7.85;;
56075;SDS011;41951;49.022;12.066;2022-12-07T03:58:50;12.77;;;8.27;;
56075;SDS011;41951;49.022;12.066;2022-12-07T04:01:17;18.00;;;9.60;;
56075;SDS011;41951;49.022;12.066;2022-12-07T04:03:43;13.13;;;7.53;;
56075;SDS011;41951;49.022;12.066;2022-12-07T04:06:08;9.07;;;6.15;;
56075;SDS011;41951;49.022;12.066;2022-12-07T04:08:34;11.77;;;7.22;;
56075;SDS011;41951;49.022;12.066;2022-12-07T04:11:00;19.55;;;10.65;;
56075;SDS011;41951;49.022;12.066;2022-12-07T04:13:26;17.17;;;8.93;;
56075;SDS011;41951;49.022;12.066;2022-12-07T04:15:51;11.63;;;7.63;;
56075;SDS011;41951;49.022;12.066;2022-12-07T04:18:17;11.85;;;7.63;;
56075;SDS011;41951;49.022;12.066;2022-12-07T04:20:42;12.98;;;7.57;;
56075;SDS011;41951;49.022;12.066;2022-12-07T04:23:08;13.70;;;8.38;;
56075;SDS011;41951;49.022;12.066;2022-12-07T04:25:34;12.90;;;7.55;;
56075;SDS011;41951;49.022;12.066;2022-12-07T04:27:59;12.68;;;8.10;;
56075;SDS011;41951;49.022;12.066;2022-12-07T04:30:25;13.88;;;8.60;;
56075;SDS011;41951;49.022;12.066;2022-12-07T04:32:50;15.38;;;8.55;;
56075;SDS011;41951;49.022;12.066;2022-12-07T04:35:16;13.98;;;8.60;;
56075;SDS011;41951;49.022;12.066;2022-12-07T04:37:42;13.32;;;8.55;;
56075;SDS011;41951;49.022;12.066;2022-12-07T04:40:07;13.88;;;8.40;;
56075;SDS011;41951;49.022;12.066;2022-12-07T04:42:36;15.15;;;9.13;;
56075;SDS011;41951;49.022;12.066;2022-12-07T04:45:03;15.88;;;8.43;;
56075;SDS011;41951;49.022;12.066;2022-12-07T04:47:29;12.75;;;7.90;;
56075;SDS011;41951;49.022;12.066;2022-12-07T04:49:54;13.95;;;8.15;;
56075;SDS011;41951;49.022;12.066;2022-12-07T04:52:20;13.73;;;9.02;;
56075;SDS011;41951;49.022;12.066;2022-12-07T04:54:45;12.95;;;8.07;;
56075;SDS011;41951;49.022;12.066;2022-12-07T04:57:11;13.75;;;7.93;;
56075;SDS011;41951;49.022;12.066;2022-12-07T04:59:36;14.57;;;8.43;;
56075;SDS011;41951;49.022;12.066;2022-12-07T05:02:02;13.65;;;8.30;;
56075;SDS011;41951;49.022;12.066;2022-12-07T05:04:28;12.35;;;8.13;;
56075;SDS011;41951;49.022;12.066;2022-12-07T05:06:53;14.75;;;9.25;;
56075;SDS011;41951;49.022;12.066;2022-12-07T05:09:19;12.20;;;8.40;;
56075;SDS011;41951;49.022;12.066;2022-12-07T05:11:45;15.07;;;8.15;;
56075;SDS011;41951;49.022;12.066;2022-12-07T05:14:15;14.38;;;8.70;;
56075;SDS011;41951;49.022;12.066;2022-12-07T05:16:43;16.20;;;8.43;;
56075;SDS011;41951;49.022;12.066;2022-12-07T05:19:10;13.48;;;9.00;;
56075;SDS011;41951;49.022;12.066;2022-12-07T05:21:36;14.82;;;9.13;;
56075;SDS011;41951;49.022;12.066;2022-12-07T05:24:03;15.00;;;9.40;;
56075;SDS011;41951;49.022;12.066;2022-12-07T05:26:29;15.02;;;9.38;;
56075;SDS011;41951;49.022;12.066;2022-12-07T05:28:55;15.23;;;9.20;;
56075;SDS011;41951;49.022;12.066;2022-12-07T05:31:22;12.95;;;8.27;;
56075;SDS011;41951;49.022;12.066;2022-12-07T05:33:49;12.32;;;7.75;;
56075;SDS011;41951;49.022;12.066;2022-12-07T05:36:14;15.68;;;9.77;;
56075;SDS011;41951;49.022;12.066;2022-12-07T05:38:40;12.43;;;7.68;;
56075;SDS011;41951;49.022;12.066;2022-12-07T05:41:06;15.77;;;8.80;;
56075;SDS011;41951;49.022;12.066;2022-12-07T05:43:53;14.18;;;8.32;;
56075;SDS011;41951;49.022;12.066;2022-12-07T05:46:18;13.30;;;8.18;;
56075;SDS011;41951;49.022;12.066;2022-12-07T05:48:44;13.27;;;8.50;;
56075;SDS011;41951;49.022;12.066;2022-12-07T05:51:10;13.35;;;8.60;;
56075;SDS011;41951;49.022;12.066;2022-12-07T05:53:35;12.77;;;8.35;;
56075;SDS011;41951;49.022;12.066;2022-12-07T05:56:01;13.55;;;7.55;;
56075;SDS011;41951;49.022;12.066;2022-12-07T05:58:27;15.48;;;8.85;;
56075;SDS011;41951;49.022;12.066;2022-12-07T06:01:11;13.57;;;8.32;;
56075;SDS011;41951;49.022;12.066;2022-12-07T06:03:36;14.52;;;8.40;;
56075;SDS011;41951;49.022;12.066;2022-12-07T06:06:02;14.45;;;8.45;;
56075;SDS011;41951;49.022;12.066;2022-12-07T06:08:28;16.38;;;8.75;;
56075;SDS011;41951;49.022;12.066;2022-12-07T06:10:53;14.55;;;8.35;;
56075;SDS011;41951;49.022;12.066;2022-12-07T06:13:39;13.27;;;8.88;;
56075;SDS011;41951;49.022;12.066;2022-12-07T06:16:04;13.95;;;8.55;;
56075;SDS011;41951;49.022;12.066;2022-12-07T06:18:31;13.60;;;8.02;;
56075;SDS011;41951;49.022;12.066;2022-12-07T06:20:56;13.40;;;8.05;;
56075;SDS011;41951;49.022;12.066;2022-12-07T06:23:22;13.65;;;8.57;;
56075;SDS011;41951;49.022;12.066;2022-12-07T06:25:48;14.38;;;8.15;;
56075;SDS011;41951;49.022;12.066;2022-12-07T06:28:13;12.60;;;7.70;;
56075;SDS011;41951;49.022;12.066;2022-12-07T06:30:39;13.45;;;8.32;;
56075;SDS011;41951;49.022;12.066;2022-12-07T06:33:04;13.00;;;7.70;;
56075;SDS011;41951;49.022;12.066;2022-12-07T06:35:32;15.38;;;8.05;;
56075;SDS011;41951;49.022;12.066;2022-12-07T06:37:58;13.90;;;8.30;;
56075;SDS011;41951;49.022;12.066;2022-12-07T06:40:24;13.73;;;7.95;;
56075;SDS011;41951;49.022;12.066;2022-12-07T06:42:49;15.13;;;8.50;;
56075;SDS011;41951;49.022;12.066;2022-12-07T06:45:15;13.25;;;8.52;;
56075;SDS011;41951;49.022;12.066;2022-12-07T06:47:41;13.85;;;8.45;;
56075;SDS011;41951;49.022;12.066;2022-12-07T06:50:07;14.95;;;8.82;;
56075;SDS011;41951;49.022;12.066;2022-12-07T06:52:33;13.50;;;8.35;;
56075;SDS011;41951;49.022;12.066;2022-12-07T06:54:59;14.75;;;8.60;;
56075;SDS011;41951;49.022;12.066;2022-12-07T06:57:25;14.80;;;8.93;;
56075;SDS011;41951;49.022;12.066;2022-12-07T06:59:51;17.85;;;8.52;;
56075;SDS011;41951;49.022;12.066;2022-12-07T07:02:16;16.08;;;9.27;;
56075;SDS011;41951;49.022;12.066;2022-12-07T07:04:43;15.70;;;9.25;;
56075;SDS011;41951;49.022;12.066;2022-12-07T07:07:08;16.00;;;8.75;;
56075;SDS011;41951;49.022;12.066;2022-12-07T07:09:34;14.98;;;9.82;;
56075;SDS011;41951;49.022;12.066;2022-12-07T07:12:00;17.65;;;9.85;;
56075;SDS011;41951;49.022;12.066;2022-12-07T07:14:25;15.50;;;9.30;;
56075;SDS011;41951;49.022;12.066;2022-12-07T07:16:51;14.80;;;8.70;;
56075;SDS011;41951;49.022;12.066;2022-12-07T07:19:17;16.20;;;9.35;;
56075;SDS011;41951;49.022;12.066;2022-12-07T07:21:42;14.45;;;9.35;;
56075;SDS011;41951;49.022;12.066;2022-12-07T07:24:08;16.33;;;10.18;;
56075;SDS011;41951;49.022;12.066;2022-12-07T07:26:34;17.80;;;9.73;;
56075;SDS011;41951;49.022;12.066;2022-12-07T07:28:59;17.13;;;9.95;;
56075;SDS011;41951;49.022;12.066;2022-12-07T07:31:25;18.02;;;9.80;;
56075;SDS011;41951;49.022;12.066;2022-12-07T07:33:50;15.82;;;9.60;;
56075;SDS011;41951;49.022;12.066;2022-12-07T07:36:16;17.67;;;10.43;;
56075;SDS011;41951;49.022;12.066;2022-12-07T07:38:42;15.93;;;9.55;;
56075;SDS011;41951;49.022;12.066;2022-12-07T07:41:08;16.25;;;9.63;;
56075;SDS011;41951;49.022;12.066;2022-12-07T07:43:33;14.65;;;9.13;;
56075;SDS011;41951;49.022;12.066;2022-12-07T07:45:59;17.00;;;9.45;;
56075;SDS011;41951;49.022;12.066;2022-12-07T07:48:24;18.58;;;10.38;;
56075;SDS011;41951;49.022;12.066;2022-12-07T07:50:50;17.50;;;10.18;;
56075;SDS011;41951;49.022;12.066;2022-12-07T07:53:16;17.70;;;10.13;;
56075;SDS011;41951;49.022;12.066;2022-12-07T07:55:49;21.65;;;10.30;;
56075;SDS011;41951;49.022;12.066;2022-12-07T07:58:18;20.42;;;10.55;;
56075;SDS011;41951;49.022;12.066;2022-12-07T08:00:44;15.20;;;9.15;;
56075;SDS011;41951;49.022;12.066;2022-12-07T08:03:10;15.23;;;8.98;;
56075;SDS011;41951;49.022;12.066;2022-12-07T08:05:36;15.35;;;9.18;;
56075;SDS011;41951;49.022;12.066;2022-12-07T08:08:02;33.63;;;11.13;;
56075;SDS011;41951;49.022;12.066;2022-12-07T08:10:28;14.85;;;9.15;;
56075;SDS011;41951;49.022;12.066;2022-12-07T08:12:54;15.02;;;9.05;;
56075;SDS011;41951;49.022;12.066;2022-12-07T08:15:39;16.52;;;9.43;;
56075;SDS011;41951;49.022;12.066;2022-12-07T08:18:06;16.77;;;9.93;;
56075;SDS011;41951;49.022;12.066;2022-12-07T08:20:33;18.83;;;9.98;;
56075;SDS011;41951;49.022;12.066;2022-12-07T08:22:59;18.52;;;9.95;;
56075;SDS011;41951;49.022;12.066;2022-12-07T08:25:25;18.08;;;9.98;;
56075;SDS011;41951;49.022;12.066;2022-12-07T08:27:52;15.77;;;9.45;;
56075;SDS011;41951;49.022;12.066;2022-12-07T08:30:18;17.38;;;10.48;;
56075;SDS011;41951;49.022;12.066;2022-12-07T08:32:45;13.68;;;7.88;;
56075;SDS011;41951;49.022;12.066;2022-12-07T08:35:12;17.00;;;10.25;;
56075;SDS011;41951;49.022;12.066;2022-12-07T08:37:38;16.08;;;9.70;;
56075;SDS011;41951;49.022;12.066;2022-12-07T08:40:04;16.95;;;9.93;;
56075;SDS011;41951;49.022;12.066;2022-12-07T08:42:31;17.85;;;9.77;;
56075;SDS011;41951;49.022;12.066;2022-12-07T08:45:06;13.57;;;8.32;;
56075;SDS011;41951;49.022;12.066;2022-12-07T08:50:01;15.55;;;8.18;;
56075;SDS011;41951;49.022;12.066;2022-12-07T08:52:31;14.75;;;8.15;;
56075;SDS011;41951;49.022;12.066;2022-12-07T08:54:58;14.48;;;8.45;;
56075;SDS011;41951;49.022;12.066;2022-12-07T08:57:25;15.73;;;8.63;;
56075;SDS011;41951;49.022;12.066;2022-12-07T08:59:53;16.33;;;9.38;;
56075;SDS011;41951;49.022;12.066;2022-12-07T09:02:18;16.08;;;8.95;;
56075;SDS011;41951;49.022;12.066;2022-12-07T09:04:44;17.58;;;9.52;;
56075;SDS011;41951;49.022;12.066;2022-12-07T09:07:10;14.40;;;8.55;;
56075;SDS011;41951;49.022;12.066;2022-12-07T09:09:36;16.75;;;8.60;;
56075;SDS011;41951;49.022;12.066;2022-12-07T09:12:01;14.93;;;8.55;;
56075;SDS011;41951;49.022;12.066;2022-12-07T09:14:27;15.27;;;9.00;;
56075;SDS011;41951;49.022;12.066;2022-12-07T09:16:53;13.90;;;8.20;;
56075;SDS011;41951;49.022;12.066;2022-12-07T09:19:19;16.23;;;9.45;;
56075;SDS011;41951;49.022;12.066;2022-12-07T09:21:44;14.35;;;7.93;;
56075;SDS011;41951;49.022;12.066;2022-12-07T09:24:11;14.95;;;8.13;;
56075;SDS011;41951;49.022;12.066;2022-12-07T09:26:37;13.20;;;8.20;;
56075;SDS011;41951;49.022;12.066;2022-12-07T09:29:05;15.50;;;8.68;;
56075;SDS011;41951;49.022;12.066;2022-12-07T09:31:31;15.45;;;9.65;;
56075;SDS011;41951;49.022;12.066;2022-12-07T09:33:57;15.45;;;8.52;;
56075;SDS011;41951;49.022;12.066;2022-12-07T09:36:24;17.05;;;8.20;;
56075;SDS011;41951;49.022;12.066;2022-12-07T09:38:51;14.32;;;8.93;;
56075;SDS011;41951;49.022;12.066;2022-12-07T09:41:16;15.75;;;8.55;;
56075;SDS011;41951;49.022;12.066;2022-12-07T09:43:42;18.75;;;8.82;;
56075;SDS011;41951;49.022;12.066;2022-12-07T09:46:09;16.35;;;8.90;;
56075;SDS011;41951;49.022;12.066;2022-12-07T09:48:40;14.20;;;8.13;;
56075;SDS011;41951;49.022;12.066;2022-12-07T09:51:15;18.80;;;9.93;;
56075;SDS011;41951;49.022;12.066;2022-12-07T09:53:43;15.02;;;8.40;;
56075;SDS011;41951;49.022;12.066;2022-12-07T09:56:11;15.98;;;8.95;;
56075;SDS011;41951;49.022;12.066;2022-12-07T09:58:39;16.60;;;9.40;;
56075;SDS011;41951;49.022;12.066;2022-12-07T10:03:35;16.52;;;8.65;;
56075;SDS011;41951;49.022;12.066;2022-12-07T10:06:03;15.13;;;8.10;;
56075;SDS011;41951;49.022;12.066;2022-12-07T10:08:30;17.67;;;9.95;;
56075;SDS011;41951;49.022;12.066;2022-12-07T10:10:56;15.10;;;8.40;;
56075;SDS011;41951;49.022;12.066;2022-12-07T10:13:44;14.63;;;8.40;;
56075;SDS011;41951;49.022;12.066;2022-12-07T10:18:49;15.45;;;9.13;;
56075;SDS011;41951;49.022;12.066;2022-12-07T10:21:19;13.63;;;8.30;;
56075;SDS011;41951;49.022;12.066;2022-12-07T10:23:59;16.75;;;8.65;;
56075;SDS011;41951;49.022;12.066;2022-12-07T10:29:16;14.23;;;7.60;;
56075;SDS011;41951;49.022;12.066;2022-12-07T10:31:58;16.05;;;8.02;;
56075;SDS011;41951;49.022;12.066;2022-12-07T10:39:44;11.98;;;7.20;;
56075;SDS011;41951;49.022;12.066;2022-12-07T10:42:23;14.02;;;7.40;;
56075;SDS011;41951;49.022;12.066;2022-12-07T10:45:17;15.25;;;7.13;;
56075;SDS011;41951;49.022;12.066;2022-12-07T10:50:37;17.00;;;7.53;;
56075;SDS011;41951;49.022;12.066;2022-12-07T10:53:32;12.60;;;6.93;;
56075;SDS011;41951;49.022;12.066;2022-12-07T10:56:29;12.70;;;7.22;;
56075;SDS011;41951;49.022;12.066;2022-12-07T10:59:21;12.93;;;7.10;;
56075;SDS011;41951;49.022;12.066;2022-12-07T11:01:55;12.63;;;6.78;;
56075;SDS011;41951;49.022;12.066;2022-12-07T11:10:55;12.70;;;5.90;;
56075;SDS011;41951;49.022;12.066;2022-12-07T11:13:44;10.15;;;5.88;;
56075;SDS011;41951;49.022;12.066;2022-12-07T11:19:14;12.00;;;6.20;;
56075;SDS011;41951;49.022;12.066;2022-12-07T11:24:30;9.95;;;5.88;;
56075;SDS011;41951;49.022;12.066;2022-12-07T11:27:26;13.25;;;6.18;;
56075;SDS011;41951;49.022;12.066;2022-12-07T11:30:10;9.82;;;6.05;;
56075;SDS011;41951;49.022;12.066;2022-12-07T11:35:22;14.00;;;6.45;;
56075;SDS011;41951;49.022;12.066;2022-12-07T11:37:50;10.25;;;5.63;;
56075;SDS011;41951;49.022;12.066;2022-12-07T11:46:08;9.75;;;5.22;;
56075;SDS011;41951;49.022;12.066;2022-12-07T11:51:13;9.50;;;5.32;;
56075;SDS011;41951;49.022;12.066;2022-12-07T11:56:15;7.82;;;4.50;;
56075;SDS011;41951;49.022;12.066;2022-12-07T12:04:06;10.10;;;5.20;;
56075;SDS011;41951;49.022;12.066;2022-12-07T12:06:35;10.95;;;5.05;;
56075;SDS011;41951;49.022;12.066;2022-12-07T12:09:04;9.73;;;4.85;;
56075;SDS011;41951;49.022;12.066;2022-12-07T12:22:43;10.90;;;5.35;;
56075;SDS011;41951;49.022;12.066;2022-12-07T12:28:03;8.82;;;4.72;;
56075;SDS011;41951;49.022;12.066;2022-12-07T12:33:01;15.70;;;6.28;;
56075;SDS011;41951;49.022;12.066;2022-12-07T12:35:35;10.35;;;5.90;;
56075;SDS011;41951;49.022;12.066;2022-12-07T12:40:50;10.57;;;5.72;;
56075;SDS011;41951;49.022;12.066;2022-12-07T12:48:52;10.05;;;5.78;;
56075;SDS011;41951;49.022;12.066;2022-12-07T12:51:39;12.13;;;6.30;;
56075;SDS011;41951;49.022;12.066;2022-12-07T12:54:11;10.45;;;5.68;;
56075;SDS011;41951;49.022;12.066;2022-12-07T13:20:58;11.32;;;5.65;;
56075;SDS011;41951;49.022;12.066;2022-12-07T13:23:37;9.48;;;5.32;;
56075;SDS011;41951;49.022;12.066;2022-12-07T13:29:05;10.03;;;5.20;;
56075;SDS011;41951;49.022;12.066;2022-12-07T13:37:12;10.77;;;5.47;;
56075;SDS011;41951;49.022;12.066;2022-12-07T13:39:59;12.07;;;5.90;;
56075;SDS011;41951;49.022;12.066;2022-12-07T13:42:39;9.75;;;5.50;;
56075;SDS011;41951;49.022;12.066;2022-12-07T13:51:02;11.10;;;6.18;;
56075;SDS011;41951;49.022;12.066;2022-12-07T13:53:28;10.45;;;5.63;;
56075;SDS011;41951;49.022;12.066;2022-12-07T13:55:56;10.60;;;4.65;;
56075;SDS011;41951;49.022;12.066;2022-12-07T13:58:26;9.13;;;5.00;;
56075;SDS011;41951;49.022;12.066;2022-12-07T14:00:55;9.40;;;5.05;;
56075;SDS011;41951;49.022;12.066;2022-12-07T14:03:29;8.73;;;5.15;;
56075;SDS011;41951;49.022;12.066;2022-12-07T14:06:19;14.00;;;6.75;;
56075;SDS011;41951;49.022;12.066;2022-12-07T14:08:50;8.63;;;4.65;;
56075;SDS011;41951;49.022;12.066;2022-12-07T14:11:30;9.43;;;5.25;;
56075;SDS011;41951;49.022;12.066;2022-12-07T14:13:58;9.90;;;5.20;;
56075;SDS011;41951;49.022;12.066;2022-12-07T14:16:32;10.05;;;4.80;;
56075;SDS011;41951;49.022;12.066;2022-12-07T14:19:01;9.48;;;5.40;;
56075;SDS011;41951;49.022;12.066;2022-12-07T14:21:29;9.57;;;4.47;;
56075;SDS011;41951;49.022;12.066;2022-12-07T14:26:34;8.82;;;4.68;;
56075;SDS011;41951;49.022;12.066;2022-12-07T14:31:45;12.10;;;5.03;;
56075;SDS011;41951;49.022;12.066;2022-12-07T14:34:11;8.23;;;4.60;;
56075;SDS011;41951;49.022;12.066;2022-12-07T14:36:37;9.50;;;5.15;;
56075;SDS011;41951;49.022;12.066;2022-12-07T14:39:03;11.93;;;5.25;;
56075;SDS011;41951;49.022;12.066;2022-12-07T14:41:29;9.25;;;5.38;;
56075;SDS011;41951;49.022;12.066;2022-12-07T14:44:13;10.82;;;5.20;;
56075;SDS011;41951;49.022;12.066;2022-12-07T14:46:38;11.30;;;5.45;;
56075;SDS011;41951;49.022;12.066;2022-12-07T14:49:04;11.60;;;5.82;;
56075;SDS011;41951;49.022;12.066;2022-12-07T14:51:30;9.10;;;5.00;;
56075;SDS011;41951;49.022;12.066;2022-12-07T14:53:56;8.80;;;4.63;;
56075;SDS011;41951;49.022;12.066;2022-12-07T14:56:22;9.23;;;4.82;;
56075;SDS011;41951;49.022;12.066;2022-12-07T14:58:47;8.18;;;4.78;;
56075;SDS011;41951;49.022;12.066;2022-12-07T15:01:13;8.15;;;4.68;;
56075;SDS011;41951;49.022;12.066;2022-12-07T15:03:39;9.88;;;4.35;;
56075;SDS011;41951;49.022;12.066;2022-12-07T15:06:05;12.35;;;6.45;;
56075;SDS011;41951;49.022;12.066;2022-12-07T15:08:31;45.75;;;23.30;;
56075;SDS011;41951;49.022;12.066;2022-12-07T15:10:57;8.18;;;4.85;;
56075;SDS011;41951;49.022;12.066;2022-12-07T15:13:23;9.68;;;4.93;;
56075;SDS011;41951;49.022;12.066;2022-12-07T15:16:09;8.13;;;4.18;;
56075;SDS011;41951;49.022;12.066;2022-12-07T15:18:38;8.45;;;4.85;;
56075;SDS011;41951;49.022;12.066;2022-12-07T15:21:03;9.68;;;4.78;;
56075;SDS011;41951;49.022;12.066;2022-12-07T15:23:29;8.82;;;5.68;;
56075;SDS011;41951;49.022;12.066;2022-12-07T15:25:56;8.90;;;4.88;;
56075;SDS011;41951;49.022;12.066;2022-12-07T15:28:21;10.00;;;5.43;;
56075;SDS011;41951;49.022;12.066;2022-12-07T15:30:47;9.77;;;5.05;;
56075;SDS011;41951;49.022;12.066;2022-12-07T15:33:13;8.95;;;5.30;;
56075;SDS011;41951;49.022;12.066;2022-12-07T15:35:39;10.00;;;4.70;;
56075;SDS011;41951;49.022;12.066;2022-12-07T15:38:05;9.73;;;5.07;;
56075;SDS011;41951;49.022;12.066;2022-12-07T15:40:31;10.43;;;4.82;;
56075;SDS011;41951;49.022;12.066;2022-12-07T15:42:57;9.88;;;4.85;;
56075;SDS011;41951;49.022;12.066;2022-12-07T15:45:22;8.63;;;4.68;;
56075;SDS011;41951;49.022;12.066;2022-12-07T15:47:48;8.30;;;4.68;;
56075;SDS011;41951;49.022;12.066;2022-12-07T15:50:14;9.40;;;4.50;;
56075;SDS011;41951;49.022;12.066;2022-12-07T15:52:41;9.30;;;4.93;;
56075;SDS011;41951;49.022;12.066;2022-12-07T15:55:07;11.00;;;5.88;;
56075;SDS011;41951;49.022;12.066;2022-12-07T15:57:34;9.05;;;5.20;;
56075;SDS011;41951;49.022;12.066;2022-12-07T16:00:02;9.68;;;5.00;;
56075;SDS011;41951;49.022;12.066;2022-12-07T16:02:28;9.20;;;4.68;;
56075;SDS011;41951;49.022;12.066;2022-12-07T16:04:54;9.50;;;4.90;;
56075;SDS011;41951;49.022;12.066;2022-12-07T16:07:20;9.45;;;5.55;;
56075;SDS011;41951;49.022;12.066;2022-12-07T16:09:46;8.18;;;5.13;;
56075;SDS011;41951;49.022;12.066;2022-12-07T16:12:12;7.95;;;4.63;;
56075;SDS011;41951;49.022;12.066;2022-12-07T16:14:38;8.00;;;4.93;;
56075;SDS011;41951;49.022;12.066;2022-12-07T16:17:05;10.93;;;5.15;;
56075;SDS011;41951;49.022;12.066;2022-12-07T16:19:31;10.45;;;5.93;;
56075;SDS011;41951;49.022;12.066;2022-12-07T16:21:58;10.27;;;5.18;;
56075;SDS011;41951;49.022;12.066;2022-12-07T16:24:24;11.90;;;7.55;;
56075;SDS011;41951;49.022;12.066;2022-12-07T16:26:50;11.05;;;5.30;;
56075;SDS011;41951;49.022;12.066;2022-12-07T16:29:17;10.18;;;6.22;;
56075;SDS011;41951;49.022;12.066;2022-12-07T16:31:44;9.05;;;5.40;;
56075;SDS011;41951;49.022;12.066;2022-12-07T16:34:10;12.05;;;6.10;;
56075;SDS011;41951;49.022;12.066;2022-12-07T16:36:35;10.35;;;5.55;;
56075;SDS011;41951;49.022;12.066;2022-12-07T16:39:02;10.38;;;5.45;;
56075;SDS011;41951;49.022;12.066;2022-12-07T16:41:28;10.13;;;5.80;;
56075;SDS011;41951;49.022;12.066;2022-12-07T16:43:53;8.82;;;5.78;;
56075;SDS011;41951;49.022;12.066;2022-12-07T16:46:19;8.32;;;5.25;;
56075;SDS011;41951;49.022;12.066;2022-12-07T16:48:45;9.38;;;5.55;;
56075;SDS011;41951;49.022;12.066;2022-12-07T16:51:11;10.20;;;6.18;;
56075;SDS011;41951;49.022;12.066;2022-12-07T16:53:38;10.73;;;5.80;;
56075;SDS011;41951;49.022;12.066;2022-12-07T16:56:09;10.60;;;5.70;;
56075;SDS011;41951;49.022;12.066;2022-12-07T17:01:11;11.52;;;5.72;;
56075;SDS011;41951;49.022;12.066;2022-12-07T17:03:38;10.80;;;6.40;;